Time;durP1;ratioP1;P1;durP2;ratioP2;P2;SDS_P1;SDS_P2;PMS_P1;PMS_P2;Temp;Humidity;BMP_temperature;BMP_pressure;BME280_temperature;BME280_humidity;BME280_pressure;Samples;Min_cycle;Max_cycle;Signal;HPM_P1;HPM_P2
2022/03/06 00:00:44;;;;;;;8.52;7.97;;;;;;;1.81;81.95;94536.78;5097352;28;20173;-63
2022/03/06 00:03:11;;;;;;;7.75;7.25;;;;;;;1.75;82.23;94539.97;5097383;28;20209;-63
2022/03/06 00:05:39;;;;;;;7.88;7.28;;;;;;;1.83;81.99;94541.91;5097300;28;20192;-64
2022/03/06 00:08:06;;;;;;;7.60;7.00;;;;;;;1.86;81.49;94541.31;5096595;28;20612;-64
2022/03/06 00:10:34;;;;;;;7.80;7.20;;;;;;;1.80;81.89;94540.63;5096386;28;20202;-64
2022/03/06 00:13:01;;;;;;;6.72;6.32;;;;;;;1.82;81.88;94537.59;5097199;28;20202;-64
2022/03/06 00:15:27;;;;;;;6.97;6.55;;;;;;;1.81;81.41;94531.34;5096879;28;20191;-64
2022/03/06 00:17:55;;;;;;;7.45;6.95;;;;;;;1.83;81.75;94536.47;5097321;28;20184;-64
2022/03/06 00:20:22;;;;;;;7.18;6.78;;;;;;;1.85;81.37;94539.69;5096793;28;20624;-64
2022/03/06 00:22:50;;;;;;;7.03;6.55;;;;;;;1.82;81.65;94537.59;5094931;28;20617;-64
2022/03/06 00:25:17;;;;;;;6.40;6.00;;;;;;;1.74;81.55;94532.91;5095859;28;20192;-64
2022/03/06 00:27:44;;;;;;;6.65;6.15;;;;;;;1.67;82.47;94533.31;5096132;28;20200;-64
2022/03/06 00:30:11;;;;;;;6.70;6.30;;;;;;;1.68;82.01;94538.47;5096790;28;20243;-64
2022/03/06 00:32:38;;;;;;;6.15;5.75;;;;;;;1.82;81.71;94529.44;5097036;28;20289;-64
2022/03/06 00:35:07;;;;;;;6.70;6.20;;;;;;;1.82;81.43;94535.69;5096575;28;20187;-64
2022/03/06 00:37:34;;;;;;;6.38;5.97;;;;;;;1.77;81.86;94524.91;5096657;28;20261;-63
2022/03/06 00:40:03;;;;;;;6.00;5.60;;;;;;;1.75;81.84;94518.22;5096012;28;20204;-63
2022/03/06 00:42:30;;;;;;;6.00;5.60;;;;;;;1.65;82.04;94522.78;5096626;28;20185;-63
2022/03/06 00:44:57;;;;;;;6.15;5.75;;;;;;;1.58;82.10;94516.97;5095429;28;20196;-63
2022/03/06 00:47:23;;;;;;;5.15;4.85;;;;;;;1.53;82.50;94524.47;5096493;28;20188;-63
2022/03/06 00:49:51;;;;;;;5.22;4.90;;;;;;;1.42;82.86;94513.81;5097117;28;20184;-63
2022/03/06 00:52:18;;;;;;;4.50;4.20;;;;;;;1.48;82.91;94505.53;5096589;28;20181;-63
2022/03/06 00:54:45;;;;;;;4.38;4.18;;;;;;;1.45;83.15;94506.94;5096477;28;20193;-64
2022/03/06 00:57:13;;;;;;;4.80;4.50;;;;;;;1.48;82.92;94506.34;5095333;28;20189;-63
2022/03/06 00:59:40;;;;;;;4.90;4.60;;;;;;;1.43;83.02;94501.03;5095514;28;20211;-63
2022/03/06 01:02:07;;;;;;;4.53;4.22;;;;;;;1.43;83.28;94507.28;5095350;28;20192;-63
2022/03/06 01:04:34;;;;;;;4.95;4.65;;;;;;;1.48;82.80;94511.78;5095890;28;20254;-64
2022/03/06 01:07:01;;;;;;;4.90;4.60;;;;;;;1.50;82.96;94495.19;5095698;28;20213;-63
2022/03/06 01:09:28;;;;;;;4.32;4.13;;;;;;;1.47;82.74;94488.44;5096020;28;20193;-63
2022/03/06 01:11:55;;;;;;;4.40;4.10;;;;;;;1.49;82.83;94485.41;5094940;28;20193;-64
2022/03/06 01:14:23;;;;;;;4.63;4.35;;;;;;;1.41;82.70;94493.19;5095135;28;20196;-64
2022/03/06 01:16:50;;;;;;;4.63;4.32;;;;;;;1.48;83.15;94491.94;5095548;28;20365;-64
2022/03/06 01:19:16;;;;;;;4.88;4.55;;;;;;;1.55;82.74;94487.69;5096108;28;20196;-64
2022/03/06 01:21:43;;;;;;;4.90;4.60;;;;;;;1.50;82.79;94497.91;5096093;28;20195;-64
2022/03/06 01:24:11;;;;;;;5.15;4.85;;;;;;;1.41;82.77;94493.19;5095552;28;20222;-64
2022/03/06 01:26:38;;;;;;;5.47;5.18;;;;;;;1.33;83.19;94490.41;5095443;28;20200;-64
2022/03/06 01:29:05;;;;;;;5.57;5.18;;;;;;;1.31;83.53;94492.66;5095665;28;20628;-64
2022/03/06 01:31:33;;;;;;;5.68;5.38;;;;;;;1.20;83.95;94486.66;5094419;28;20690;-64
2022/03/06 01:34:02;;;;;;;5.80;5.40;;;;;;;1.26;84.23;94488.13;5095257;28;20200;-64
2022/03/06 01:36:30;;;;;;;6.10;5.70;;;;;;;1.19;84.36;94485.81;5095782;28;20220;-64
2022/03/06 01:38:57;;;;;;;6.00;5.60;;;;;;;1.22;84.11;94475.47;5095256;28;20192;-64
2022/03/06 01:41:24;;;;;;;6.38;5.97;;;;;;;1.20;84.45;94481.22;5095360;28;20601;-64
2022/03/06 01:43:51;;;;;;;6.47;6.07;;;;;;;1.22;84.13;94480.91;5095104;28;20216;-64
2022/03/06 01:46:17;;;;;;;6.47;6.00;;;;;;;1.18;84.32;94472.56;5094876;28;20195;-64
2022/03/06 01:48:46;;;;;;;6.93;6.53;;;;;;;1.22;84.76;94465.41;5095629;28;20176;-64
2022/03/06 01:51:12;;;;;;;7.05;6.63;;;;;;;1.26;84.42;94469.09;5095393;28;20597;-64
2022/03/06 01:53:40;;;;;;;6.97;6.47;;;;;;;1.19;84.54;94460.56;5095067;28;20597;-64
2022/03/06 01:56:06;;;;;;;7.15;6.65;;;;;;;1.23;84.42;94458.84;5094774;28;20188;-64
2022/03/06 01:58:33;;;;;;;7.45;6.95;;;;;;;1.27;84.22;94450.88;5094503;28;20246;-64
2022/03/06 02:01:00;;;;;;;7.75;7.25;;;;;;;1.24;84.35;94459.66;5095395;28;20180;-64
2022/03/06 02:03:27;;;;;;;7.72;7.22;;;;;;;1.28;84.37;94457.94;5095199;28;20204;-64
2022/03/06 02:05:55;;;;;;;7.82;7.32;;;;;;;1.29;84.06;94459.53;5095348;28;20191;-64
2022/03/06 02:08:22;;;;;;;8.32;7.75;;;;;;;1.33;84.04;94461.31;5094368;28;20601;-64
2022/03/06 02:10:49;;;;;;;8.35;7.75;;;;;;;1.34;83.99;94460.19;5095094;28;20521;-64
2022/03/06 02:13:16;;;;;;;8.07;7.47;;;;;;;1.28;83.72;94453.31;5094292;28;20197;-64
2022/03/06 02:15:45;;;;;;;8.02;7.45;;;;;;;1.25;84.03;94455.84;5094956;28;20176;-64
2022/03/06 02:18:11;;;;;;;8.07;7.57;;;;;;;1.31;84.04;94460.03;5095217;28;20192;-64
2022/03/06 02:20:38;;;;;;;8.60;8.00;;;;;;;1.31;83.88;94451.91;5094544;28;20266;-64
2022/03/06 02:23:06;;;;;;;8.75;8.15;;;;;;;1.31;83.72;94457.31;5095038;28;20261;-64
2022/03/06 02:25:34;;;;;;;8.13;7.63;;;;;;;1.29;84.13;94457.63;5094667;28;20177;-64
2022/03/06 02:28:02;;;;;;;8.20;7.63;;;;;;;1.26;83.85;94452.00;5094757;28;20287;-64
2022/03/06 02:30:34;;;;;;;8.20;7.60;;;;;;;1.27;83.86;94453.59;5095091;28;20232;-64
2022/03/06 02:33:03;;;;;;;8.20;7.70;;;;;;;1.25;83.92;94447.69;5095246;28;20199;-64
2022/03/06 02:35:31;;;;;;;8.23;7.70;;;;;;;1.25;84.06;94453.91;5094810;28;20184;-64
2022/03/06 02:37:58;;;;;;;8.27;7.68;;;;;;;1.25;84.39;94453.91;5093820;28;20211;-64
2022/03/06 02:40:27;;;;;;;8.00;7.50;;;;;;;1.24;84.10;94460.47;5095005;28;20261;-64
2022/03/06 02:42:55;;;;;;;7.88;7.30;;;;;;;1.24;84.25;94460.47;5094200;28;20197;-64
2022/03/06 02:45:23;;;;;;;7.50;6.90;;;;;;;1.26;84.02;94452.81;5095198;28;20223;-64
2022/03/06 02:47:51;;;;;;;7.88;7.38;;;;;;;1.20;83.87;94449.41;5098976;28;20199;-64
2022/03/06 02:50:19;;;;;;;7.60;7.10;;;;;;;1.17;84.05;94460.91;5098938;28;20196;-64
2022/03/06 02:52:47;;;;;;;7.38;6.75;;;;;;;1.21;84.32;94455.66;5098697;28;20220;-64
2022/03/06 02:55:15;;;;;;;7.38;6.88;;;;;;;1.20;84.09;94457.56;5098898;28;20185;-63
2022/03/06 02:57:43;;;;;;;7.28;6.78;;;;;;;1.25;83.74;94453.13;5098770;28;20191;-64
2022/03/06 03:00:12;;;;;;;6.45;6.05;;;;;;;1.26;83.92;94454.72;5097957;28;20203;-64
2022/03/06 03:02:39;;;;;;;6.50;6.10;;;;;;;1.25;84.02;94462.06;5098792;28;20188;-64
2022/03/06 03:05:07;;;;;;;6.45;6.05;;;;;;;1.30;83.94;94458.41;5097701;28;20208;-63
2022/03/06 03:07:34;;;;;;;6.53;6.10;;;;;;;1.28;83.51;94461.47;5098515;28;20184;-63
2022/03/06 03:10:00;;;;;;;6.15;5.75;;;;;;;1.28;83.71;94466.09;5098554;28;20191;-63
2022/03/06 03:12:27;;;;;;;5.70;5.30;;;;;;;1.26;83.82;94460.94;5098524;28;20510;-64
2022/03/06 03:14:55;;;;;;;5.70;5.30;;;;;;;1.25;84.00;94459.34;5097497;28;20195;-64
2022/03/06 03:17:22;;;;;;;5.45;5.05;;;;;;;1.19;83.96;94463.28;5097514;28;20192;-64
2022/03/06 03:19:49;;;;;;;5.00;4.70;;;;;;;1.19;84.02;94471.44;5097997;28;20282;-64
2022/03/06 03:22:16;;;;;;;5.30;4.90;;;;;;;1.19;83.99;94474.97;5098474;28;20192;-64
2022/03/06 03:24:42;;;;;;;4.97;4.57;;;;;;;1.12;84.54;94474.59;5097600;28;20220;-64
2022/03/06 03:27:09;;;;;;;5.00;4.70;;;;;;;1.07;84.65;94469.28;5097387;28;20211;-64
2022/03/06 03:29:36;;;;;;;4.97;4.68;;;;;;;1.12;84.86;94462.91;5098014;28;20194;-64
2022/03/06 03:32:07;;;;;;;4.93;4.63;;;;;;;1.09;84.87;94477.94;5098422;28;20228;-64
2022/03/06 03:34:34;;;;;;;4.47;4.28;;;;;;;1.11;84.82;94464.03;5098028;28;20185;-64
2022/03/06 03:37:00;;;;;;;4.30;4.10;;;;;;;1.08;84.75;94465.44;5097715;28;20200;-64
2022/03/06 03:39:27;;;;;;;4.82;4.55;;;;;;;1.02;85.06;94477.56;5097641;28;20248;-64
2022/03/06 03:41:54;;;;;;;4.90;4.60;;;;;;;0.98;85.02;94467.59;5097888;28;20195;-64
2022/03/06 03:44:21;;;;;;;5.07;4.68;;;;;;;0.90;85.69;94478.06;5097397;28;20212;-64
2022/03/06 03:46:48;;;;;;;4.82;4.53;;;;;;;0.94;85.86;94476.38;5096619;28;20209;-64
2022/03/06 03:49:16;;;;;;;4.60;4.35;;;;;;;0.92;85.89;94465.00;5097706;28;20180;-64
2022/03/06 03:51:43;;;;;;;4.47;4.18;;;;;;;0.92;85.66;94470.44;5097303;28;20191;-64
2022/03/06 03:54:10;;;;;;;4.03;3.83;;;;;;;0.94;85.25;94481.81;5097663;28;20542;-64
2022/03/06 03:56:37;;;;;;;4.32;4.13;;;;;;;1.00;85.78;94478.97;5096086;28;20196;-64
2022/03/06 03:59:04;;;;;;;3.90;3.70;;;;;;;1.02;85.37;94482.16;5097747;28;20184;-64
2022/03/06 04:01:31;;;;;;;4.15;3.85;;;;;;;1.04;85.48;94474.53;5096582;28;20215;-64
2022/03/06 04:03:57;;;;;;;4.63;4.32;;;;;;;1.03;85.44;94472.94;5097438;28;20201;-64
2022/03/06 04:06:26;;;;;;;4.53;4.25;;;;;;;0.98;85.73;94471.13;5097461;28;20192;-64
2022/03/06 04:08:52;;;;;;;4.80;4.50;;;;;;;0.92;85.75;94478.59;5096859;28;20257;-64
2022/03/06 04:11:19;;;;;;;4.38;4.10;;;;;;;0.95;86.06;94480.69;5096033;28;20193;-64
2022/03/06 04:13:46;;;;;;;3.85;3.65;;;;;;;0.87;86.37;94488.75;5097059;28;20263;-64
2022/03/06 04:16:13;;;;;;;3.55;3.35;;;;;;;0.88;86.04;94480.31;5097279;28;20196;-64
2022/03/06 04:18:40;;;;;;;3.45;3.25;;;;;;;0.97;85.93;94483.09;5096285;28;20546;-64
2022/03/06 04:21:06;;;;;;;3.30;3.10;;;;;;;0.93;85.69;94482.09;5095946;28;20197;-64
2022/03/06 05:43:59;;;;;;;2.40;2.30;;;;;;;0.54;87.22;94493.53;5133612;27;20547;-65
2022/03/06 05:46:26;;;;;;;2.50;2.40;;;;;;;0.52;87.13;94483.00;5133126;28;20172;-62
2022/03/06 05:48:53;;;;;;;2.70;2.50;;;;;;;0.51;86.91;94484.13;5133329;28;20188;-62
2022/03/06 05:51:19;;;;;;;2.47;2.38;;;;;;;0.51;86.52;94477.84;5133120;28;20187;-64
2022/03/06 05:53:46;;;;;;;2.35;2.17;;;;;;;0.50;86.62;94487.91;5133294;28;20194;-63
2022/03/06 05:56:13;;;;;;;2.50;2.40;;;;;;;0.52;86.90;94490.34;5133312;28;20216;-62
2022/03/06 05:58:40;;;;;;;2.60;2.50;;;;;;;0.51;86.88;94486.00;5132855;28;20191;-66
2022/03/06 06:01:08;;;;;;;2.60;2.50;;;;;;;0.48;86.77;94490.94;5132770;28;20240;-62
2022/03/06 06:03:35;;;;;;;2.70;2.60;;;;;;;0.53;86.66;94500.09;5114913;28;20227;-62
2022/03/06 06:06:01;;;;;;;2.70;2.50;;;;;;;0.51;86.21;94494.13;5115559;28;20191;-62
2022/03/06 06:08:28;;;;;;;2.33;2.22;;;;;;;0.53;86.37;94500.09;5132670;28;20236;-63
2022/03/06 06:10:55;;;;;;;2.30;2.20;;;;;;;0.53;86.30;94492.75;5115025;28;20191;-62
2022/03/06 06:13:22;;;;;;;2.58;2.47;;;;;;;0.53;86.18;94510.94;5114793;28;20191;-62
2022/03/06 06:15:48;;;;;;;2.80;2.60;;;;;;;0.51;86.46;94505.81;5132713;28;20510;-63
2022/03/06 06:18:18;;;;;;;2.92;2.50;;;;;;;0.59;86.08;94507.81;5114830;28;20256;-63
2022/03/06 06:20:45;;;;;;;3.10;2.90;;;;;;;0.58;85.89;94500.78;5133112;28;20183;-63
2022/03/06 06:23:12;;;;;;;2.40;2.30;;;;;;;0.49;85.72;94505.31;5132155;28;20234;-63
2022/03/06 06:25:38;;;;;;;2.50;2.40;;;;;;;0.50;85.60;94508.81;5114611;28;20196;-65
2022/03/06 06:28:05;;;;;;;2.70;2.50;;;;;;;0.45;86.21;94509.75;5114322;28;20206;-65
2022/03/06 06:30:32;;;;;;;2.50;2.40;;;;;;;0.46;86.03;94506.72;5132496;28;20179;-65
2022/03/06 06:32:59;;;;;;;2.78;2.58;;;;;;;0.45;86.27;94517.88;5114617;28;20192;-64
2022/03/06 06:35:27;;;;;;;2.83;2.63;;;;;;;0.48;86.96;94523.50;5132336;28;20256;-65
2022/03/06 06:37:54;;;;;;;2.80;2.60;;;;;;;0.39;86.44;94519.88;5114414;28;20196;-64
2022/03/06 06:40:21;;;;;;;2.80;2.60;;;;;;;0.48;87.08;94517.28;5114323;28;20211;-63
2022/03/06 06:42:48;;;;;;;2.83;2.72;;;;;;;0.60;86.26;94525.69;5131096;28;20246;-64
2022/03/06 06:45:14;;;;;;;2.50;2.40;;;;;;;0.61;86.24;94529.22;5100246;28;20209;-64
2022/03/06 06:47:41;;;;;;;2.90;2.70;;;;;;;0.63;86.71;94538.66;5100910;28;20199;-64
2022/03/06 06:50:08;;;;;;;2.80;2.60;;;;;;;0.67;85.90;94534.25;5100543;28;20200;-64
2022/03/06 06:52:37;;;;;;;3.33;3.13;;;;;;;0.67;85.93;94526.09;5118532;28;20184;-64
2022/03/06 06:55:04;;;;;;;3.20;3.00;;;;;;;0.66;85.85;94543.50;5118454;28;20198;-64
2022/03/06 06:57:32;;;;;;;2.60;2.40;;;;;;;0.62;85.49;94541.69;5100378;28;20204;-64
2022/03/06 07:00:00;;;;;;;2.88;2.67;;;;;;;0.66;86.00;94542.69;5100450;28;20208;-64
2022/03/06 07:02:26;;;;;;;3.25;3.05;;;;;;;0.64;85.95;94528.63;5118225;28;20299;-65
2022/03/06 07:04:53;;;;;;;3.15;2.95;;;;;;;0.56;85.88;94530.13;5117873;28;20184;-64
2022/03/06 07:07:20;;;;;;;3.30;3.10;;;;;;;0.62;86.34;94528.13;5117882;28;20180;-64
2022/03/06 07:09:48;;;;;;;2.90;2.70;;;;;;;0.55;86.31;94514.16;5118241;28;20184;-65
2022/03/06 07:12:15;;;;;;;2.85;2.75;;;;;;;0.58;86.53;94521.66;5100128;28;20200;-64
2022/03/06 07:14:42;;;;;;;2.80;2.60;;;;;;;0.61;86.26;94535.44;5100122;28;20207;-64
2022/03/06 07:17:08;;;;;;;3.03;2.83;;;;;;;0.53;86.61;94529.94;5100075;28;20202;-64
2022/03/06 07:19:35;;;;;;;2.67;2.53;;;;;;;0.54;86.42;94526.91;5099650;28;20192;-64
2022/03/06 07:22:02;;;;;;;2.70;2.50;;;;;;;0.49;86.27;94524.31;5117860;28;20264;-64
2022/03/06 07:24:29;;;;;;;2.55;2.45;;;;;;;0.51;86.42;94522.09;5117684;28;20192;-65
2022/03/06 07:26:57;;;;;;;2.40;2.30;;;;;;;0.52;86.26;94533.75;5117430;28;20184;-64
2022/03/06 07:29:24;;;;;;;2.70;2.50;;;;;;;0.54;86.04;94532.31;5099733;28;20195;-64
2022/03/06 07:31:50;;;;;;;2.53;2.30;;;;;;;0.61;86.12;94540.06;5117556;28;20200;-64
2022/03/06 07:34:17;;;;;;;2.20;2.03;;;;;;;0.72;85.39;94528.69;5099640;28;20204;-64
2022/03/06 07:36:44;;;;;;;2.20;2.10;;;;;;;0.72;84.74;94533.31;5117734;28;20176;-64
2022/03/06 07:39:11;;;;;;;2.50;2.40;;;;;;;0.71;84.85;94535.22;5117569;28;20187;-64
2022/03/06 07:41:37;;;;;;;2.22;2.13;;;;;;;0.70;84.70;94538.25;5099516;28;20203;-64
2022/03/06 07:44:06;;;;;;;2.50;2.30;;;;;;;0.72;84.42;94528.69;5099549;28;20545;-64
2022/03/06 07:46:33;;;;;;;2.28;2.17;;;;;;;0.87;83.81;94540.34;5133347;27;20199;-64
2022/03/06 07:49:00;;;;;;;2.60;2.45;;;;;;;0.88;83.56;94545.47;5099162;28;20192;-64
2022/03/06 07:51:26;;;;;;;2.85;2.65;;;;;;;0.87;83.77;94543.88;5117207;28;20203;-64
2022/03/06 07:53:53;;;;;;;2.40;2.20;;;;;;;0.79;84.26;94551.91;5099402;28;20192;-64
2022/03/06 07:56:20;;;;;;;2.33;2.17;;;;;;;0.77;84.05;94546.00;5116209;28;20257;-64
2022/03/06 07:58:47;;;;;;;2.38;2.20;;;;;;;0.79;84.25;94546.50;5117651;28;20191;-66
2022/03/06 08:01:15;;;;;;;2.20;2.10;;;;;;;0.76;84.86;94542.47;5099196;28;20192;-64
2022/03/06 08:03:42;;;;;;;2.50;2.40;;;;;;;0.77;84.27;94552.22;5133293;27;20216;-64
2022/03/06 08:06:08;;;;;;;1.90;1.80;;;;;;;0.74;84.84;94543.88;5099435;28;20259;-64
2022/03/06 08:08:35;;;;;;;2.33;2.13;;;;;;;0.85;84.56;94554.22;5098636;28;20191;-64
2022/03/06 08:11:02;;;;;;;2.55;2.40;;;;;;;0.92;83.93;94565.47;5099021;28;20291;-64
2022/03/06 08:13:29;;;;;;;3.03;2.83;;;;;;;0.92;83.69;94561.97;5116885;28;20176;-64
2022/03/06 08:15:55;;;;;;;3.50;3.30;;;;;;;0.92;83.87;94557.34;5116887;28;20187;-64
2022/03/06 08:18:24;;;;;;;3.50;3.20;;;;;;;1.06;83.96;94564.66;5099065;28;20221;-64
2022/03/06 08:20:50;;;;;;;3.00;2.80;;;;;;;0.98;83.51;94570.78;5116536;28;20179;-69
2022/03/06 08:23:17;;;;;;;3.20;3.00;;;;;;;0.99;83.88;94564.28;5116493;28;20216;-64
2022/03/06 08:25:44;;;;;;;2.83;2.40;;;;;;;0.98;83.70;94562.63;5098871;28;20195;-64
2022/03/06 08:28:11;;;;;;;2.50;2.40;;;;;;;0.95;83.33;94561.38;5116307;28;20202;-64
2022/03/06 08:30:38;;;;;;;2.75;2.55;;;;;;;0.89;84.14;94559.84;5098860;28;20200;-64
2022/03/06 08:33:04;;;;;;;2.80;2.60;;;;;;;0.93;84.01;94556.22;5116119;28;20182;-64
2022/03/06 08:35:33;;;;;;;3.22;3.00;;;;;;;0.99;84.02;94553.41;5115923;28;20206;-64
2022/03/06 08:38:00;;;;;;;2.72;2.35;;;;;;;0.96;83.34;94550.19;5115899;28;20213;-64
2022/03/06 08:40:26;;;;;;;3.05;2.85;;;;;;;0.93;83.67;94545.34;5116328;28;20195;-64
2022/03/06 08:42:53;;;;;;;3.10;2.90;;;;;;;0.90;83.53;94543.25;5115792;28;20664;-64
2022/03/06 08:45:21;;;;;;;3.10;2.80;;;;;;;0.92;83.34;94542.97;5098419;28;20202;-64
2022/03/06 08:47:47;;;;;;;3.47;3.17;;;;;;;0.95;83.14;94540.44;5115822;28;20187;-66
2022/03/06 08:50:14;;;;;;;2.88;2.67;;;;;;;0.95;83.37;94537.72;5098465;28;20199;-65
2022/03/06 08:52:42;;;;;;;3.03;2.70;;;;;;;1.05;83.33;94538.59;5116108;28;20190;-64
2022/03/06 08:55:10;;;;;;;3.20;2.90;;;;;;;1.23;82.63;94542.25;5116069;28;20191;-66
2022/03/06 08:57:37;;;;;;;3.08;2.78;;;;;;;1.22;82.22;94544.19;5116093;28;20191;-63
2022/03/06 09:00:06;;;;;;;2.60;2.40;;;;;;;1.31;82.14;94541.56;5097764;28;20199;-63
2022/03/06 09:02:32;;;;;;;3.00;2.80;;;;;;;1.22;82.25;94541.47;5098361;28;20212;-63
2022/03/06 09:04:59;;;;;;;2.80;2.60;;;;;;;1.13;82.94;94540.59;5098045;28;20196;-63
2022/03/06 09:07:27;;;;;;;7.10;6.20;;;;;;;1.16;83.77;94527.22;5115549;28;20194;-63
2022/03/06 09:09:55;;;;;;;5.30;4.80;;;;;;;1.17;83.16;94526.09;5116038;28;20188;-63
2022/03/06 09:12:23;;;;;;;4.80;4.43;;;;;;;1.24;82.87;94522.97;5115794;28;20188;-64
2022/03/06 09:14:50;;;;;;;4.10;3.80;;;;;;;1.27;82.70;94537.81;5115748;28;20198;-64
2022/03/06 09:17:17;;;;;;;3.35;3.08;;;;;;;1.21;82.18;94545.31;5115672;28;20176;-64
2022/03/06 09:19:43;;;;;;;2.97;2.67;;;;;;;1.16;82.40;94545.41;5097828;28;20261;-64
2022/03/06 09:22:10;;;;;;;3.10;2.90;;;;;;;1.21;82.36;94545.31;5097492;28;20642;-64
2022/03/06 09:24:37;;;;;;;4.15;3.75;;;;;;;1.15;82.75;94552.75;5097512;28;20214;-64
2022/03/06 09:27:06;;;;;;;2.67;2.47;;;;;;;1.19;82.49;94547.50;5097518;28;20199;-64
2022/03/06 09:29:32;;;;;;;4.03;3.72;;;;;;;1.22;82.77;94544.19;5115297;28;20190;-64
2022/03/06 09:31:59;;;;;;;4.50;4.10;;;;;;;1.21;82.65;94548.00;5115309;28;20607;-64
2022/03/06 09:34:26;;;;;;;5.35;4.88;;;;;;;1.24;82.52;94563.72;5098168;28;20200;-64
2022/03/06 09:36:53;;;;;;;4.68;4.28;;;;;;;1.16;82.06;94557.09;5097792;28;20203;-64
2022/03/06 09:39:20;;;;;;;3.25;3.05;;;;;;;1.05;82.09;94550.25;5097636;28;20195;-64
2022/03/06 09:41:49;;;;;;;3.83;3.42;;;;;;;1.05;82.75;94550.25;5097872;28;20252;-64
2022/03/06 09:44:17;;;;;;;7.03;5.20;;;;;;;1.12;82.90;94550.63;5097811;28;20212;-65
2022/03/06 09:46:44;;;;;;;9.68;7.10;;;;;;;1.16;83.12;94546.22;5097527;28;20195;-64
2022/03/06 09:49:11;;;;;;;7.28;5.60;;;;;;;1.17;83.00;94557.88;5097719;28;20198;-65
2022/03/06 09:51:39;;;;;;;8.27;5.20;;;;;;;1.16;82.91;94551.66;5114816;28;20192;-64
2022/03/06 09:54:07;;;;;;;11.60;8.15;;;;;;;1.14;82.63;94547.63;5097610;28;20207;-64
2022/03/06 09:56:34;;;;;;;7.70;5.32;;;;;;;1.09;82.70;94547.72;5114722;28;20184;-64
2022/03/06 09:59:00;;;;;;;6.07;5.10;;;;;;;1.12;83.06;94564.22;5114699;28;20191;-64
2022/03/06 10:01:29;;;;;;;8.02;6.22;;;;;;;1.32;82.58;94564.88;5096994;28;20199;-64
2022/03/06 10:03:55;;;;;;;5.35;4.95;;;;;;;1.47;82.53;94563.72;5115085;28;20211;-64
2022/03/06 10:06:23;;;;;;;6.68;6.07;;;;;;;1.50;80.96;94555.75;5097611;28;20192;-64
2022/03/06 10:09:03;;;;;;;7.72;7.00;;;;;;;1.48;80.78;94563.41;5096797;28;20200;-63
2022/03/06 10:11:30;;;;;;;3.92;3.63;;;;;;;1.55;79.87;94561.06;5115337;28;20176;-64
2022/03/06 10:13:56;;;;;;;6.90;6.20;;;;;;;1.65;79.99;94565.47;5115010;28;20188;-64
2022/03/06 10:16:23;;;;;;;5.30;4.80;;;;;;;1.77;79.92;94570.34;5115183;28;20180;-63
2022/03/06 10:18:53;;;;;;;6.28;5.68;;;;;;;1.80;79.80;94577.88;5116151;28;20184;-64
2022/03/06 10:21:22;;;;;;;3.67;3.47;;;;;;;1.73;78.68;94572.88;5118458;28;20187;-64
2022/03/06 10:23:51;;;;;;;4.32;3.97;;;;;;;1.78;79.05;94580.09;5101366;28;20238;-64
2022/03/06 10:26:18;;;;;;;4.40;4.10;;;;;;;1.79;78.16;94585.25;5101079;28;20206;-64
2022/03/06 10:28:54;;;;;;;5.88;5.45;;;;;;;1.82;77.99;94579.19;5118782;28;20188;-64
2022/03/06 10:31:22;;;;;;;5.20;4.80;;;;;;;1.74;77.06;94571.75;5118831;28;20191;-64
2022/03/06 10:33:57;;;;;;;4.55;4.25;;;;;;;1.72;77.19;94567.75;5101017;28;20195;-64
2022/03/06 10:36:32;;;;;;;4.57;4.28;;;;;;;1.84;76.46;94559.84;5100935;28;20201;-64
2022/03/06 10:38:59;;;;;;;4.35;4.15;;;;;;;1.79;75.82;94566.22;5118804;28;20195;-63
2022/03/06 10:41:34;;;;;;;6.07;5.65;;;;;;;1.89;75.75;94560.53;5118414;28;20226;-63
2022/03/06 10:44:01;;;;;;;4.60;4.30;;;;;;;1.91;75.30;94555.56;5118533;28;20214;-64
2022/03/06 10:46:27;;;;;;;5.30;5.00;;;;;;;1.77;75.19;94554.81;5118715;28;20187;-64
2022/03/06 10:48:57;;;;;;;4.82;4.53;;;;;;;1.73;74.97;94551.13;5118480;28;20206;-64
2022/03/06 10:51:24;;;;;;;3.78;3.58;;;;;;;1.73;74.91;94559.28;5100526;28;20508;-64
2022/03/06 10:53:52;;;;;;;3.72;3.53;;;;;;;1.72;74.92;94559.59;5119083;28;20176;-64
2022/03/06 10:56:20;;;;;;;4.35;4.05;;;;;;;1.83;75.18;94552.78;5118015;28;20601;-64
2022/03/06 10:58:48;;;;;;;4.30;4.00;;;;;;;1.83;74.54;94548.16;5118355;28;20237;-64
2022/03/06 11:01:15;;;;;;;5.53;5.22;;;;;;;1.76;74.62;94553.22;5118196;28;20184;-64
2022/03/06 11:03:43;;;;;;;3.85;3.60;;;;;;;1.76;74.77;94561.38;5100204;28;20572;-64
2022/03/06 11:06:12;;;;;;;4.40;4.10;;;;;;;1.61;76.05;94553.59;5100368;28;20199;-64
2022/03/06 11:08:40;;;;;;;3.53;3.25;;;;;;;1.51;77.01;94551.94;5099959;28;20195;-64
2022/03/06 11:11:07;;;;;;;4.07;3.78;;;;;;;1.48;77.53;94549.03;5100164;28;20200;-64
2022/03/06 11:13:34;;;;;;;3.83;3.63;;;;;;;1.39;77.63;94549.75;5100103;28;20196;-64
2022/03/06 11:16:02;;;;;;;5.18;4.78;;;;;;;1.38;77.81;94556.31;5118094;28;20180;-64
2022/03/06 11:18:29;;;;;;;10.02;9.02;;;;;;;1.43;78.23;94572.50;5099891;28;20196;-64
2022/03/06 11:20:58;;;;;;;10.50;9.63;;;;;;;1.30;77.94;94569.81;5100002;28;20195;-64
2022/03/06 11:23:33;;;;;;;3.50;3.20;;;;;;;1.29;78.12;94573.66;5099774;28;20227;-64
2022/03/06 11:26:15;;;;;;;4.30;4.00;;;;;;;1.30;78.02;94567.91;5117775;28;20187;-64
2022/03/06 11:28:53;;;;;;;3.72;3.42;;;;;;;1.32;77.24;94573.03;5099859;28;20199;-64
2022/03/06 11:31:20;;;;;;;3.08;2.88;;;;;;;1.32;77.97;94571.13;5117587;28;20180;-65
2022/03/06 11:33:55;;;;;;;3.80;3.50;;;;;;;1.43;77.31;94561.63;5117697;28;20180;-66
2022/03/06 11:36:25;;;;;;;3.97;3.67;;;;;;;1.47;77.34;94567.25;5117346;28;20179;-65
2022/03/06 11:38:54;;;;;;;3.40;3.10;;;;;;;1.43;77.13;94563.53;5117363;28;20241;-65
2022/03/06 11:41:22;;;;;;;3.83;3.53;;;;;;;1.42;77.18;94557.31;5117330;28;20191;-65
2022/03/06 11:43:50;;;;;;;3.58;3.28;;;;;;;1.32;77.83;94568.41;5116925;28;20240;-65
2022/03/06 11:46:18;;;;;;;3.28;3.08;;;;;;;1.42;77.35;94559.22;5099409;28;20192;-65
2022/03/06 11:49:12;;;;;;;3.38;3.17;;;;;;;1.40;77.41;94572.31;5118803;28;20187;-65
2022/03/06 11:51:47;;;;;;;4.13;3.83;;;;;;;1.42;78.04;94564.66;5099913;28;20249;-65
2022/03/06 11:54:25;;;;;;;4.22;3.92;;;;;;;1.34;78.18;94559.94;5099738;28;20252;-65
2022/03/06 11:56:59;;;;;;;4.13;3.92;;;;;;;1.38;77.91;94550.88;5099308;28;20251;-66
2022/03/06 11:59:35;;;;;;;3.65;3.40;;;;;;;1.37;78.58;94559.31;5116998;28;20190;-65
2022/03/06 12:02:19;;;;;;;4.18;3.88;;;;;;;1.46;78.84;94556.69;5099707;28;20222;-65
2022/03/06 12:04:47;;;;;;;3.70;3.50;;;;;;;1.53;78.37;94555.16;5114348;28;20216;-65
2022/03/06 12:07:17;;;;;;;4.22;3.92;;;;;;;1.57;78.58;94558.84;5116734;28;20624;-64
2022/03/06 12:09:46;;;;;;;5.47;4.97;;;;;;;1.54;78.32;94556.75;5099285;28;20196;-64
2022/03/06 12:12:14;;;;;;;4.72;4.43;;;;;;;1.35;78.93;94553.41;5099554;28;20238;-64
2022/03/06 12:14:43;;;;;;;5.30;4.90;;;;;;;1.34;79.27;94557.22;5099067;28;20203;-64
2022/03/06 12:17:24;;;;;;;4.95;4.65;;;;;;;1.34;79.82;94557.22;5098883;28;20199;-64
2022/03/06 12:20:23;;;;;;;7.88;7.30;;;;;;;1.39;79.52;94562.56;5116758;28;20200;-64
2022/03/06 12:22:51;;;;;;;7.10;6.60;;;;;;;1.53;79.56;94557.88;5098670;28;20203;-64
2022/03/06 12:25:24;;;;;;;6.97;6.47;;;;;;;1.68;79.32;94564.84;5098275;28;20211;-64
2022/03/06 12:28:24;;;;;;;6.30;5.85;;;;;;;1.78;78.78;94556.44;5116336;28;20188;-64
2022/03/06 12:30:51;;;;;;;4.85;4.55;;;;;;;1.79;77.99;94554.53;5116581;28;20219;-64
2022/03/06 12:33:39;;;;;;;4.95;4.63;;;;;;;1.80;77.82;94561.56;5116352;28;20180;-64
2022/03/06 12:36:13;;;;;;;4.97;4.57;;;;;;;1.71;77.41;94555.25;5116119;28;20180;-64
2022/03/06 12:38:40;;;;;;;4.30;4.00;;;;;;;1.56;78.17;94549.09;5116004;28;20207;-65
2022/03/06 12:41:08;;;;;;;4.85;4.55;;;;;;;1.56;78.75;94546.38;5097753;28;20191;-64
2022/03/06 12:43:41;;;;;;;4.95;4.60;;;;;;;1.53;78.77;94549.72;5077317;28;20312;-64
2022/03/06 12:46:08;;;;;;;6.53;6.03;;;;;;;1.54;79.34;94548.59;5074665;28;20626;-64
2022/03/06 12:48:35;;;;;;;5.72;5.32;;;;;;;1.52;79.28;94544.56;5074403;28;20220;-64
2022/03/06 12:51:02;;;;;;;8.30;7.50;;;;;;;1.57;79.13;94547.19;5075562;28;20235;-64
2022/03/06 12:53:29;;;;;;;7.00;6.45;;;;;;;1.50;78.91;94546.81;5074417;28;20197;-64
2022/03/06 12:56:00;;;;;;;6.20;5.70;;;;;;;1.44;78.67;94538.75;5075578;28;20184;-64
2022/03/06 12:58:42;;;;;;;4.60;4.30;;;;;;;1.29;79.40;94536.41;5075613;28;20615;-64
2022/03/06 13:01:10;;;;;;;4.80;4.47;;;;;;;1.32;79.99;94535.81;5074433;28;20193;-66
2022/03/06 13:03:37;;;;;;;4.43;4.13;;;;;;;1.26;78.98;94533.50;5075301;28;20182;-66
2022/03/06 13:06:15;;;;;;;4.63;4.32;;;;;;;1.21;79.36;94539.88;5075089;28;20192;-64